Time;durP1;ratioP1;P1;durP2;ratioP2;P2;SDS_P1;SDS_P2;PMS_P1;PMS_P2;Temp;Humidity;BMP_temperature;BMP_pressure;BME280_temperature;BME280_humidity;BME280_pressure;Samples;Min_cycle;Max_cycle;Signal;HPM_P1;HPM_P2
2022/05/04 00:00:11;;;;;;;15.10;6.20;;;7.40;99.90;;;;;;5078247;28;20157;-75
2022/05/04 00:02:37;;;;;;;10.13;4.65;;;7.40;99.90;;;;;;5078250;28;20195;-78
2022/05/04 00:05:04;;;;;;;13.45;4.43;;;7.40;99.90;;;;;;5078574;28;20044;-75
2022/05/04 00:07:30;;;;;;;11.23;5.20;;;7.50;99.90;;;;;;5095948;28;20131;-76
2022/05/04 00:09:57;;;;;;;15.65;4.53;;;7.40;99.90;;;;;;5078432;28;20369;-73
2022/05/04 00:12:24;;;;;;;13.25;5.13;;;7.40;99.90;;;;;;5078185;28;20115;-75
2022/05/04 00:14:50;;;;;;;13.25;4.80;;;7.40;99.90;;;;;;5095846;28;20082;-75
2022/05/04 00:17:16;;;;;;;9.77;4.47;;;7.40;99.90;;;;;;5095469;28;20040;-74
2022/05/04 00:19:42;;;;;;;11.52;4.40;;;7.40;99.90;;;;;;5077467;28;20127;-76
2022/05/04 00:22:07;;;;;;;12.07;4.32;;;7.40;99.90;;;;;;5095684;28;20048;-75
2022/05/04 00:24:33;;;;;;;15.57;5.30;;;7.40;99.90;;;;;;5095559;28;20039;-75
2022/05/04 00:26:59;;;;;;;11.95;5.00;;;7.40;99.90;;;;;;5078089;28;20055;-74
2022/05/04 00:29:25;;;;;;;9.43;4.38;;;7.40;99.90;;;;;;5077884;28;20044;-74
2022/05/04 00:31:50;;;;;;;11.30;5.30;;;7.40;99.90;;;;;;5095137;28;20054;-75
2022/05/04 00:34:16;;;;;;;12.07;5.35;;;7.40;99.90;;;;;;5077836;28;20110;-76
2022/05/04 00:36:42;;;;;;;10.60;5.63;;;7.40;99.90;;;;;;5077663;28;20126;-75
2022/05/04 00:39:08;;;;;;;15.25;4.65;;;7.40;99.90;;;;;;5077674;28;20048;-76
2022/05/04 00:41:34;;;;;;;11.45;4.88;;;7.40;99.90;;;;;;5077323;28;20035;-76
2022/05/04 00:43:59;;;;;;;12.82;4.38;;;7.40;99.90;;;;;;5077331;28;20101;-75
2022/05/04 00:46:25;;;;;;;13.25;4.72;;;7.40;99.90;;;;;;5095051;28;20125;-75
2022/05/04 00:48:51;;;;;;;16.63;4.72;;;7.50;99.90;;;;;;5077608;28;20048;-76
2022/05/04 00:51:17;;;;;;;12.23;5.40;;;7.40;99.90;;;;;;5077568;28;20549;-76
2022/05/04 00:53:44;;;;;;;13.95;4.60;;;7.40;99.90;;;;;;5095010;28;20039;-75
2022/05/04 00:56:11;;;;;;;11.82;4.57;;;7.50;99.90;;;;;;5094999;28;20040;-75
2022/05/04 00:58:56;;;;;;;10.20;4.40;;;7.40;99.90;;;;;;5077058;28;20044;-77
2022/05/04 01:01:30;;;;;;;12.85;4.47;;;7.50;99.90;;;;;;5060103;28;20040;-75
2022/05/04 01:03:58;;;;;;;9.27;4.07;;;7.40;99.90;;;;;;5076409;28;20040;-75
2022/05/04 01:06:25;;;;;;;7.35;4.72;;;7.40;99.90;;;;;;5077302;28;20441;-75
2022/05/04 01:08:52;;;;;;;13.50;4.97;;;7.40;99.90;;;;;;5094679;28;20048;-75
2022/05/04 01:11:19;;;;;;;10.65;4.60;;;7.40;99.90;;;;;;5076954;28;20127;-75
2022/05/04 01:14:05;;;;;;;9.80;4.47;;;7.40;99.90;;;;;;5091211;28;20036;-76
2022/05/04 01:16:32;;;;;;;12.73;4.70;;;7.40;99.90;;;;;;5094698;28;20137;-76
2022/05/04 01:18:58;;;;;;;14.73;4.32;;;7.50;99.90;;;;;;5094064;28;20054;-74
2022/05/04 01:21:24;;;;;;;10.77;5.28;;;7.50;99.90;;;;;;5076632;28;20051;-76
2022/05/04 01:23:51;;;;;;;10.13;4.75;;;7.50;99.90;;;;;;5060075;28;20067;-75
2022/05/04 01:26:18;;;;;;;12.77;4.53;;;7.40;99.90;;;;;;5094422;28;20051;-76
2022/05/04 01:28:44;;;;;;;10.25;4.68;;;7.40;99.90;;;;;;5076703;28;20181;-75
2022/05/04 01:31:10;;;;;;;13.52;4.95;;;7.40;99.90;;;;;;5076780;28;20040;-75
2022/05/04 01:33:36;;;;;;;10.10;4.28;;;7.40;99.90;;;;;;5094149;28;20047;-75
2022/05/04 01:36:03;;;;;;;12.90;5.43;;;7.40;99.90;;;;;;5073850;28;20080;-75
2022/05/04 01:38:28;;;;;;;11.18;4.88;;;7.40;99.90;;;;;;5094060;28;20093;-75
2022/05/04 01:40:54;;;;;;;12.70;5.38;;;7.40;99.90;;;;;;5093891;28;20056;-75
2022/05/04 01:43:20;;;;;;;8.65;4.53;;;7.40;99.90;;;;;;5094062;28;20040;-75
2022/05/04 01:45:46;;;;;;;10.43;4.65;;;7.40;99.90;;;;;;5093837;28;20360;-76
2022/05/04 01:48:11;;;;;;;14.80;5.88;;;7.40;99.90;;;;;;5093855;28;20052;-74
2022/05/04 01:50:37;;;;;;;16.17;5.45;;;7.40;99.90;;;;;;5076423;28;20058;-76
2022/05/04 01:53:03;;;;;;;12.82;4.15;;;7.40;99.90;;;;;;5093904;28;20039;-74
2022/05/04 01:55:33;;;;;;;14.18;4.82;;;7.40;99.90;;;;;;5059316;28;20054;-75
2022/05/04 01:57:59;;;;;;;13.82;5.47;;;7.40;99.90;;;;;;5076216;28;20048;-74
2022/05/04 02:00:25;;;;;;;10.27;4.32;;;7.40;99.90;;;;;;5076015;28;20052;-76
2022/05/04 02:02:52;;;;;;;12.35;5.10;;;7.40;99.90;;;;;;5093630;28;20126;-75
2022/05/04 02:05:18;;;;;;;11.20;4.60;;;7.40;99.90;;;;;;5075776;28;20482;-75
2022/05/04 02:07:44;;;;;;;12.68;5.70;;;7.40;99.90;;;;;;5076124;28;20044;-76
2022/05/04 02:10:11;;;;;;;12.57;4.95;;;7.40;99.90;;;;;;5093242;28;20035;-75
2022/05/04 02:12:37;;;;;;;13.63;4.72;;;7.40;99.90;;;;;;5093556;28;20059;-74
2022/05/04 02:15:04;;;;;;;10.07;4.35;;;7.40;99.90;;;;;;5093386;28;20050;-75
2022/05/04 02:17:30;;;;;;;17.10;5.55;;;7.40;99.90;;;;;;5075759;28;20445;-75
2022/05/04 02:19:56;;;;;;;11.18;5.22;;;7.40;99.90;;;;;;5092951;28;20052;-75
2022/05/04 02:22:22;;;;;;;12.07;4.65;;;7.40;99.90;;;;;;5075502;28;20056;-74
2022/05/04 02:24:48;;;;;;;15.20;4.93;;;7.40;99.90;;;;;;5059080;28;20044;-75
2022/05/04 02:27:14;;;;;;;8.63;4.32;;;7.40;99.90;;;;;;5075755;28;20419;-74
2022/05/04 02:29:40;;;;;;;9.95;5.20;;;7.40;99.90;;;;;;5093198;28;20080;-74
2022/05/04 02:32:06;;;;;;;13.25;4.40;;;7.40;99.90;;;;;;5075760;28;20040;-77
2022/05/04 02:34:32;;;;;;;11.55;4.93;;;7.40;99.90;;;;;;5093071;28;20603;-76
2022/05/04 02:39:42;;;;;;;15.60;5.32;;;7.40;99.90;;;;;;5092959;28;20131;-76
2022/05/04 02:42:08;;;;;;;9.70;5.38;;;7.40;99.90;;;;;;5075378;28;20408;-73
2022/05/04 02:44:34;;;;;;;10.73;4.25;;;7.40;99.90;;;;;;5092730;28;20468;-75
2022/05/04 02:46:59;;;;;;;11.75;4.95;;;7.40;99.90;;;;;;5092909;28;20109;-75
2022/05/04 02:49:25;;;;;;;8.85;4.70;;;7.40;99.90;;;;;;5092700;28;20040;-74
2022/05/04 02:51:51;;;;;;;12.10;5.07;;;7.40;99.90;;;;;;5074973;28;20122;-75
2022/05/04 02:54:17;;;;;;;12.48;4.75;;;7.40;99.90;;;;;;5075005;28;20052;-75
2022/05/04 02:56:42;;;;;;;8.85;4.45;;;7.40;99.90;;;;;;5075181;28;20445;-76
2022/05/04 02:59:08;;;;;;;12.27;4.97;;;7.40;99.90;;;;;;5092528;28;20449;-76
2022/05/04 03:04:18;;;;;;;7.47;4.15;;;7.40;99.90;;;;;;5092338;28;20140;-74
2022/05/04 03:06:44;;;;;;;11.93;4.53;;;7.40;99.90;;;;;;5092614;28;20048;-76
2022/05/04 03:09:11;;;;;;;16.55;5.50;;;7.40;99.90;;;;;;5074897;28;20488;-74
2022/05/04 03:11:56;;;;;;;6.60;3.85;;;7.30;99.90;;;;;;5092566;28;20082;-75
2022/05/04 03:14:26;;;;;;;9.27;4.07;;;7.30;99.90;;;;;;5092236;28;20054;-75
2022/05/04 03:16:53;;;;;;;10.40;3.95;;;7.30;99.90;;;;;;5092178;28;20044;-75
2022/05/04 03:19:20;;;;;;;11.73;4.43;;;7.30;99.90;;;;;;5074494;28;20055;-75
2022/05/04 03:21:46;;;;;;;9.02;4.38;;;7.20;99.90;;;;;;5074636;28;20181;-74
2022/05/04 03:24:11;;;;;;;8.00;4.00;;;7.30;99.90;;;;;;5074817;28;20093;-76
2022/05/04 03:26:38;;;;;;;11.73;4.30;;;7.30;99.90;;;;;;5092475;28;20412;-74
2022/05/04 03:29:04;;;;;;;10.98;4.35;;;7.20;99.90;;;;;;5074800;28;20069;-76
2022/05/04 03:31:30;;;;;;;10.00;3.42;;;7.30;99.90;;;;;;5074795;28;20048;-76
2022/05/04 03:33:56;;;;;;;8.07;2.97;;;7.20;99.90;;;;;;5074843;28;20120;-75
2022/05/04 03:36:22;;;;;;;8.57;3.65;;;7.20;99.90;;;;;;5092496;28;20318;-76
2022/05/04 03:38:48;;;;;;;10.00;3.67;;;7.20;99.90;;;;;;5074786;28;20101;-75
2022/05/04 03:41:14;;;;;;;9.85;3.95;;;7.20;99.90;;;;;;5092245;28;20093;-74
2022/05/04 03:43:40;;;;;;;9.73;3.53;;;7.20;99.90;;;;;;5074896;28;20464;-75
2022/05/04 03:46:17;;;;;;;10.98;4.05;;;7.20;99.90;;;;;;5074607;28;20043;-75
2022/05/04 03:48:45;;;;;;;11.07;3.33;;;7.20;99.90;;;;;;5074744;28;20380;-75
2022/05/04 03:51:13;;;;;;;12.95;4.10;;;7.20;99.90;;;;;;5092130;28;20445;-75
2022/05/04 03:53:40;;;;;;;11.57;3.05;;;7.20;99.90;;;;;;5074778;28;20044;-77
2022/05/04 03:56:05;;;;;;;9.70;3.55;;;7.20;99.90;;;;;;5092458;28;20044;-76
2022/05/04 03:58:32;;;;;;;7.40;3.20;;;7.20;99.90;;;;;;5092382;28;20047;-76
2022/05/04 04:00:58;;;;;;;12.52;3.42;;;7.20;99.90;;;;;;5074257;28;20055;-74
2022/05/04 04:03:23;;;;;;;10.55;3.75;;;7.20;99.90;;;;;;5074315;28;20040;-76
2022/05/04 04:05:49;;;;;;;9.45;3.22;;;7.20;99.90;;;;;;5074485;28;20051;-75
2022/05/04 04:08:15;;;;;;;8.73;3.03;;;7.20;99.90;;;;;;5074582;28;20047;-75
2022/05/04 04:10:41;;;;;;;8.45;3.50;;;7.20;99.90;;;;;;5074401;28;20119;-76
2022/05/04 04:13:06;;;;;;;7.78;3.33;;;7.20;99.90;;;;;;5092243;28;20058;-75
2022/05/04 04:15:33;;;;;;;13.48;3.35;;;7.20;99.90;;;;;;5091999;28;20040;-76
2022/05/04 04:17:59;;;;;;;8.40;3.67;;;7.20;99.90;;;;;;5092058;28;20456;-74
2022/05/04 04:23:09;;;;;;;11.02;4.13;;;7.20;99.90;;;;;;5092277;28;20051;-74
2022/05/04 04:25:36;;;;;;;14.32;3.97;;;7.30;99.90;;;;;;5092113;28;20095;-75
2022/05/04 04:28:01;;;;;;;6.70;4.00;;;7.30;99.90;;;;;;5074437;28;20126;-74
2022/05/04 04:30:27;;;;;;;7.45;3.50;;;7.30;99.90;;;;;;5091934;28;20181;-75
2022/05/04 04:32:53;;;;;;;9.50;3.22;;;7.30;99.90;;;;;;5074512;28;20091;-75
2022/05/04 04:35:19;;;;;;;7.75;3.58;;;7.30;99.90;;;;;;5073985;28;20115;-74
2022/05/04 04:37:44;;;;;;;10.93;3.97;;;7.40;99.90;;;;;;5091646;28;20043;-75
2022/05/04 04:40:11;;;;;;;8.43;3.28;;;7.40;99.90;;;;;;5075964;28;20048;-76
2022/05/04 04:42:37;;;;;;;7.68;3.97;;;7.40;99.90;;;;;;5095378;28;20471;-74
2022/05/04 04:45:05;;;;;;;7.60;3.40;;;7.40;99.90;;;;;;5099830;28;20052;-72
2022/05/04 04:47:31;;;;;;;11.77;3.33;;;7.40;99.90;;;;;;5103075;28;20361;-72
2022/05/04 04:49:57;;;;;;;11.25;3.90;;;7.40;99.90;;;;;;5098180;28;20044;-76
2022/05/04 04:52:23;;;;;;;9.98;3.00;;;7.50;99.90;;;;;;5077795;28;20105;-74
2022/05/04 04:54:50;;;;;;;7.03;3.17;;;7.50;99.90;;;;;;5077478;28;20462;-76
2022/05/04 04:57:16;;;;;;;10.80;3.55;;;7.50;99.90;;;;;;5095044;28;20456;-76
2022/05/04 04:59:42;;;;;;;8.23;3.55;;;7.60;99.90;;;;;;5095325;28;20044;-77
2022/05/04 05:02:08;;;;;;;7.18;3.78;;;7.60;99.90;;;;;;5095273;28;20044;-77
2022/05/04 05:04:34;;;;;;;10.07;5.15;;;7.60;99.90;;;;;;5095299;28;20044;-74
2022/05/04 05:07:00;;;;;;;8.98;4.05;;;7.60;99.90;;;;;;5077434;28;20051;-75
2022/05/04 05:09:25;;;;;;;11.95;4.07;;;7.70;99.90;;;;;;5077239;28;20499;-75
2022/05/04 05:11:51;;;;;;;10.43;3.50;;;7.70;99.90;;;;;;5077199;28;20044;-73
2022/05/04 05:17:02;;;;;;;10.45;3.50;;;7.80;99.90;;;;;;5077177;28;20409;-76
2022/05/04 05:19:28;;;;;;;9.65;3.30;;;7.80;99.90;;;;;;5094627;28;20136;-75
2022/05/04 05:21:53;;;;;;;8.75;3.13;;;7.90;99.90;;;;;;5076675;28;20047;-75
2022/05/04 05:24:19;;;;;;;15.48;3.95;;;7.90;99.90;;;;;;5094501;28;20044;-76
2022/05/04 05:26:45;;;;;;;8.45;3.05;;;8.00;99.90;;;;;;5094733;28;20040;-77
2022/05/04 05:29:11;;;;;;;8.27;3.85;;;8.00;99.90;;;;;;5077091;28;20074;-75
2022/05/04 05:31:37;;;;;;;10.77;3.50;;;8.10;99.90;;;;;;5076909;28;20059;-74
2022/05/04 05:34:03;;;;;;;10.07;2.85;;;8.20;99.90;;;;;;5094566;28;20044;-76
2022/05/04 05:36:28;;;;;;;10.68;3.42;;;8.20;99.90;;;;;;5076811;28;20052;-75
2022/05/04 05:38:54;;;;;;;6.13;2.55;;;8.20;99.90;;;;;;5076963;28;20516;-76
2022/05/04 05:41:23;;;;;;;9.90;2.70;;;8.20;99.90;;;;;;5094432;28;20354;-75
2022/05/04 05:43:49;;;;;;;7.88;2.92;;;8.20;99.90;;;;;;5094498;28;20062;-75
2022/05/04 05:46:15;;;;;;;8.70;2.90;;;8.20;99.90;;;;;;5076655;28;20455;-75
2022/05/04 05:48:42;;;;;;;9.15;2.85;;;8.20;99.90;;;;;;5094454;28;20099;-75
2022/05/04 05:51:07;;;;;;;9.45;2.35;;;8.30;99.90;;;;;;5093926;28;20043;-75
2022/05/04 05:53:33;;;;;;;6.85;2.60;;;8.30;99.90;;;;;;5094260;28;20364;-74
2022/05/04 05:55:59;;;;;;;8.38;2.88;;;8.30;99.90;;;;;;5094133;28;20440;-75
2022/05/04 05:58:25;;;;;;;9.10;2.60;;;8.40;99.90;;;;;;5094118;28;20047;-75
2022/05/04 06:00:51;;;;;;;6.80;2.00;;;8.40;99.90;;;;;;5094118;28;20044;-76
2022/05/04 06:03:18;;;;;;;8.82;2.40;;;8.40;99.90;;;;;;5094123;28;20409;-74
2022/05/04 06:05:44;;;;;;;10.02;2.08;;;8.40;99.90;;;;;;5077229;28;20036;-76
2022/05/04 06:08:10;;;;;;;7.93;2.70;;;8.50;99.90;;;;;;5076027;28;20036;-75
2022/05/04 06:10:41;;;;;;;9.25;2.40;;;8.50;99.90;;;;;;5097996;28;20440;-74
2022/05/04 06:13:10;;;;;;;8.60;2.70;;;8.60;99.90;;;;;;5119666;28;20043;-76
2022/05/04 06:15:36;;;;;;;8.43;2.50;;;8.70;99.90;;;;;;5068438;28;20099;-75
2022/05/04 06:18:02;;;;;;;7.20;2.40;;;8.80;99.90;;;;;;5079514;28;20068;-75
2022/05/04 06:20:31;;;;;;;9.98;2.67;;;8.90;99.90;;;;;;5074895;28;20425;-74
2022/05/04 06:22:57;;;;;;;9.07;2.45;;;9.00;99.90;;;;;;5075840;28;20047;-76
2022/05/04 06:25:23;;;;;;;6.43;2.83;;;9.00;99.90;;;;;;5093578;28;20088;-74
2022/05/04 06:27:49;;;;;;;8.70;2.80;;;9.20;99.90;;;;;;5072518;28;20178;-74
2022/05/04 06:35:45;;;;;;;8.00;2.45;;;9.40;99.90;;;;;;5092806;28;20055;-75
2022/05/04 06:38:10;;;;;;;9.02;2.22;;;9.40;99.90;;;;;;5093337;28;20040;-78
2022/05/04 06:40:38;;;;;;;9.45;2.25;;;9.40;99.90;;;;;;5074735;28;20457;-76
2022/05/04 06:43:04;;;;;;;11.13;2.05;;;9.50;99.90;;;;;;5088954;28;20040;-74
2022/05/04 06:45:30;;;;;;;10.80;2.33;;;9.60;99.90;;;;;;5076195;28;20055;-75
2022/05/04 06:47:55;;;;;;;11.70;3.15;;;9.70;99.90;;;;;;5092764;28;20441;-78
2022/05/04 06:50:21;;;;;;;8.10;2.20;;;9.80;99.90;;;;;;5075464;28;20339;-76
2022/05/04 06:52:47;;;;;;;10.80;2.30;;;9.90;99.90;;;;;;5075209;28;20131;-75
2022/05/04 06:55:13;;;;;;;8.88;2.30;;;9.90;99.90;;;;;;5092960;28;20052;-76
2022/05/04 06:57:39;;;;;;;7.32;2.40;;;10.00;99.90;;;;;;5075146;28;20087;-75
2022/05/04 07:00:07;;;;;;;10.05;3.10;;;10.10;99.90;;;;;;5074925;28;20076;-75
2022/05/04 07:02:33;;;;;;;11.07;2.60;;;10.20;99.90;;;;;;5074207;28;20144;-74
2022/05/04 07:05:00;;;;;;;9.63;2.80;;;10.40;99.90;;;;;;5075036;28;20039;-76
2022/05/04 07:07:26;;;;;;;11.18;2.55;;;10.40;99.90;;;;;;5092971;28;20048;-76
2022/05/04 07:09:52;;;;;;;6.57;2.10;;;10.60;99.90;;;;;;5092629;28;20058;-77
2022/05/04 07:12:17;;;;;;;8.38;2.47;;;10.60;99.90;;;;;;5092703;28;20043;-76
2022/05/04 07:14:43;;;;;;;7.05;2.72;;;10.70;99.90;;;;;;5074872;28;20465;-75
2022/05/04 07:17:09;;;;;;;11.60;2.80;;;10.70;99.90;;;;;;5092422;28;20354;-76
2022/05/04 07:19:35;;;;;;;7.45;2.72;;;10.60;99.90;;;;;;5090829;28;20043;-75
2022/05/04 07:22:02;;;;;;;9.80;2.75;;;10.60;99.90;;;;;;5074490;28;20051;-76
2022/05/04 07:24:28;;;;;;;9.48;3.20;;;10.70;99.90;;;;;;5089212;28;20063;-76
2022/05/04 07:26:53;;;;;;;12.50;2.80;;;10.90;99.90;;;;;;5089215;28;20058;-75
2022/05/04 07:29:19;;;;;;;10.48;2.60;;;11.10;99.90;;;;;;5074434;28;20098;-75
2022/05/04 07:31:45;;;;;;;5.93;1.80;;;11.60;99.90;;;;;;5074610;28;20097;-77
2022/05/04 07:34:14;;;;;;;8.50;2.20;;;12.00;99.90;;;;;;5092233;28;20052;-77
2022/05/04 07:36:40;;;;;;;5.03;1.95;;;12.20;99.90;;;;;;5092215;28;20039;-75
2022/05/04 07:39:05;;;;;;;10.13;2.85;;;12.30;99.90;;;;;;5092286;28;20098;-77
2022/05/04 07:44:15;;;;;;;6.80;2.28;;;12.40;99.90;;;;;;5092115;28;20047;-75
2022/05/04 07:46:43;;;;;;;4.90;2.13;;;12.60;99.90;;;;;;5074570;28;20044;-76
2022/05/04 07:49:09;;;;;;;7.70;2.40;;;12.70;99.90;;;;;;5092161;28;20051;-76
2022/05/04 07:51:35;;;;;;;10.45;3.10;;;12.60;99.90;;;;;;5092029;28;20051;-75
2022/05/04 07:54:01;;;;;;;10.85;2.20;;;12.50;99.90;;;;;;5092091;28;20051;-79
2022/05/04 07:56:26;;;;;;;7.72;2.70;;;12.50;99.90;;;;;;5091652;28;20428;-76
2022/05/04 07:58:52;;;;;;;8.45;2.60;;;12.50;99.90;;;;;;5091706;28;20081;-75
2022/05/04 08:04:19;;;;;;;5.28;2.00;;;12.50;99.90;;;;;;5074393;28;20087;-75
2022/05/04 08:06:45;;;;;;;5.45;1.90;;;13.00;99.90;;;;;;5092100;28;20105;-75
2022/05/04 08:09:11;;;;;;;5.80;2.08;;;13.60;99.90;;;;;;5091939;28;20040;-76
2022/05/04 08:11:37;;;;;;;6.60;2.15;;;14.20;99.90;;;;;;5092094;28;20365;-76
2022/05/04 08:14:03;;;;;;;13.40;2.53;;;14.70;99.90;;;;;;5076368;28;20039;-77
2022/05/04 08:16:29;;;;;;;6.43;2.00;;;14.80;99.90;;;;;;5078404;28;20048;-77
2022/05/04 08:18:54;;;;;;;8.25;2.42;;;14.90;99.90;;;;;;5095685;28;20496;-77
2022/05/04 08:21:20;;;;;;;7.15;2.85;;;15.10;99.90;;;;;;5077836;28;20135;-76
2022/05/04 08:23:46;;;;;;;7.50;3.15;;;15.30;99.90;;;;;;5095942;28;20408;-76
2022/05/04 08:26:12;;;;;;;9.68;2.10;;;15.50;99.90;;;;;;5095887;28;20454;-75
2022/05/04 08:28:39;;;;;;;6.63;2.33;;;15.50;98.80;;;;;;5095794;28;20095;-76
2022/05/04 08:31:05;;;;;;;6.28;2.30;;;15.20;96.90;;;;;;5095868;28;20066;-76
2022/05/04 08:33:31;;;;;;;6.90;2.65;;;14.70;96.50;;;;;;5077950;28;20054;-77
2022/05/04 08:35:57;;;;;;;8.02;2.08;;;14.50;97.00;;;;;;5095447;28;20048;-78
2022/05/04 08:38:23;;;;;;;6.35;1.73;;;14.50;97.20;;;;;;5095541;28;20044;-76
2022/05/04 08:40:54;;;;;;;9.25;2.13;;;14.80;96.40;;;;;;5077505;28;20087;-77
2022/05/04 08:43:24;;;;;;;6.35;2.03;;;15.30;94.90;;;;;;5095578;28;20510;-79
2022/05/04 08:45:52;;;;;;;5.30;2.10;;;15.50;95.50;;;;;;5095689;28;20044;-77
2022/05/04 08:48:18;;;;;;;8.35;2.42;;;15.70;95.00;;;;;;5095581;28;20044;-77
2022/05/04 08:50:44;;;;;;;6.88;2.40;;;15.80;95.20;;;;;;5095091;28;20040;-77
2022/05/04 08:53:12;;;;;;;8.52;2.25;;;15.70;93.60;;;;;;5095361;28;20090;-78
2022/05/04 08:55:38;;;;;;;9.10;1.95;;;15.30;93.20;;;;;;5077418;28;20040;-76
2022/05/04 08:58:07;;;;;;;7.30;2.53;;;14.80;92.50;;;;;;5095430;28;20105;-77
2022/05/04 09:00:33;;;;;;;8.05;2.28;;;14.50;92.50;;;;;;5095231;28;20105;-78
2022/05/04 09:03:00;;;;;;;7.43;2.58;;;14.30;92.40;;;;;;5094690;28;20119;-77
2022/05/04 09:05:27;;;;;;;7.00;1.98;;;14.70;93.20;;;;;;5095226;28;20368;-78
2022/05/04 09:07:57;;;;;;;8.55;2.42;;;15.40;93.80;;;;;;5077254;28;20045;-78
2022/05/04 09:10:27;;;;;;;5.70;2.60;;;16.00;93.90;;;;;;5095033;28;20039;-77
2022/05/04 09:12:55;;;;;;;8.02;2.28;;;16.30;91.80;;;;;;5095027;28;20040;-78
2022/05/04 09:15:22;;;;;;;10.18;2.20;;;16.60;91.90;;;;;;5094977;28;20047;-77
2022/05/04 09:17:58;;;;;;;6.63;1.98;;;16.60;89.30;;;;;;5094688;28;20160;-78
2022/05/04 09:20:45;;;;;;;5.10;2.13;;;16.40;87.00;;;;;;5094218;28;20101;-76
2022/05/04 09:23:13;;;;;;;8.45;2.70;;;15.60;85.50;;;;;;5094849;28;20127;-74
2022/05/04 09:25:39;;;;;;;6.57;2.03;;;15.10;88.70;;;;;;5076317;28;20054;-75
2022/05/04 09:28:12;;;;;;;7.18;2.30;;;15.00;89.40;;;;;;5094623;28;20039;-75
2022/05/04 09:31:05;;;;;;;10.13;3.17;;;14.70;88.30;;;;;;5076988;28;20043;-75
2022/05/04 09:33:34;;;;;;;4.97;2.00;;;14.80;90.20;;;;;;5073197;28;20056;-77
2022/05/04 09:36:03;;;;;;;10.50;2.45;;;15.10;89.70;;;;;;5091670;28;20441;-74
2022/05/04 09:46:52;;;;;;;8.02;2.75;;;16.20;85.80;;;;;;5093862;28;20391;-75
2022/05/04 09:49:20;;;;;;;6.32;2.63;;;16.10;87.90;;;;;;5075977;28;20052;-75
2022/05/04 09:51:53;;;;;;;6.18;2.58;;;16.10;89.70;;;;;;5076590;28;20048;-76
2022/05/04 09:54:21;;;;;;;7.35;2.72;;;16.30;89.90;;;;;;5094063;28;20063;-74
2022/05/04 09:56:53;;;;;;;5.10;2.10;;;16.50;86.70;;;;;;5094121;28;20044;-76
2022/05/04 09:59:21;;;;;;;9.32;2.05;;;16.70;83.40;;;;;;5093974;28;20121;-76
2022/05/04 10:01:48;;;;;;;8.15;2.53;;;17.00;79.10;;;;;;5076179;28;20048;-75
2022/05/04 10:04:15;;;;;;;7.93;2.35;;;17.10;80.60;;;;;;5094069;28;20036;-75
2022/05/04 10:06:41;;;;;;;9.18;2.50;;;17.30;79.90;;;;;;5076017;28;20119;-75
2022/05/04 10:09:08;;;;;;;6.13;2.33;;;17.50;81.50;;;;;;5093907;28;20044;-74
2022/05/04 10:11:35;;;;;;;7.70;2.65;;;17.70;78.20;;;;;;5093859;28;20055;-76
2022/05/04 10:14:10;;;;;;;8.70;2.92;;;17.50;77.80;;;;;;5075847;28;20044;-77
2022/05/04 10:16:54;;;;;;;5.45;2.28;;;17.20;76.60;;;;;;5093524;28;20044;-75
2022/05/04 10:19:33;;;;;;;7.55;2.65;;;16.60;77.00;;;;;;5093443;28;20058;-74
2022/05/04 10:22:00;;;;;;;4.57;2.17;;;16.40;79.70;;;;;;5093363;28;20119;-75
2022/05/04 10:24:35;;;;;;;7.80;2.60;;;16.30;80.50;;;;;;5075648;28;20040;-75
2022/05/04 10:27:14;;;;;;;8.40;3.05;;;16.50;82.70;;;;;;5093333;28;20461;-76
2022/05/04 10:32:38;;;;;;;7.60;2.60;;;17.60;81.70;;;;;;5093253;28;20421;-75
2022/05/04 10:35:17;;;;;;;9.77;2.58;;;18.00;77.50;;;;;;5075558;28;20085;-76
2022/05/04 10:37:58;;;;;;;8.63;3.03;;;18.30;75.80;;;;;;5090855;28;20406;-75
2022/05/04 10:40:31;;;;;;;6.32;2.63;;;18.30;74.70;;;;;;5071516;28;20044;-75
2022/05/04 10:43:04;;;;;;;20.38;4.47;;;18.30;75.40;;;;;;5072788;28;20059;-76
2022/05/04 10:45:33;;;;;;;6.90;2.80;;;18.50;77.10;;;;;;5055056;28;20048;-74
2022/05/04 10:48:17;;;;;;;6.80;2.55;;;18.70;77.50;;;;;;5072861;28;20051;-76
2022/05/04 10:50:55;;;;;;;5.07;2.70;;;18.90;75.50;;;;;;5055346;28;20048;-76
2022/05/04 10:53:24;;;;;;;6.43;2.35;;;18.50;74.20;;;;;;5072972;28;20051;-75
2022/05/04 10:55:58;;;;;;;8.70;2.80;;;18.20;72.40;;;;;;5072651;28;20353;-75
2022/05/04 10:58:34;;;;;;;9.00;3.00;;;18.10;70.50;;;;;;5072840;28;20360;-76
2022/05/04 11:01:17;;;;;;;5.47;2.80;;;18.10;69.50;;;;;;5072547;28;20049;-76
2022/05/04 11:04:10;;;;;;;5.70;2.33;;;18.30;74.30;;;;;;5055201;28;20127;-75
2022/05/04 11:06:52;;;;;;;7.68;2.58;;;18.60;70.70;;;;;;5072458;28;20123;-74
2022/05/04 11:09:31;;;;;;;8.80;2.70;;;18.60;69.70;;;;;;5084594;28;20177;-77
2022/05/04 11:11:59;;;;;;;4.25;2.40;;;18.30;67.50;;;;;;5074977;28;20059;-76
2022/05/04 11:14:25;;;;;;;6.40;2.60;;;17.90;68.20;;;;;;5092742;28;20051;-75
2022/05/04 11:16:53;;;;;;;7.03;2.70;;;17.90;68.40;;;;;;5074917;28;20043;-74
2022/05/04 11:19:22;;;;;;;9.23;3.40;;;17.90;70.60;;;;;;5092350;28;20413;-75
2022/05/04 11:21:49;;;;;;;5.90;2.63;;;18.00;71.00;;;;;;5092482;28;20047;-76
2022/05/04 11:24:16;;;;;;;7.50;3.03;;;18.10;70.30;;;;;;5070785;28;20040;-75
2022/05/04 11:26:44;;;;;;;5.93;3.00;;;18.20;72.20;;;;;;5072420;28;20127;-75
2022/05/04 11:29:18;;;;;;;8.50;2.88;;;18.50;70.70;;;;;;5055482;28;20040;-74
2022/05/04 11:31:54;;;;;;;6.13;3.05;;;18.60;69.30;;;;;;5074522;28;20033;-75
2022/05/04 11:34:25;;;;;;;6.03;2.90;;;18.80;71.10;;;;;;5056813;28;20072;-76
2022/05/04 11:36:53;;;;;;;6.13;3.28;;;19.10;67.90;;;;;;5092367;28;20044;-75
2022/05/04 11:39:20;;;;;;;3.47;2.50;;;19.20;66.00;;;;;;5091955;28;20086;-75
2022/05/04 11:41:47;;;;;;;8.93;2.72;;;19.00;64.90;;;;;;5074335;28;20105;-76
2022/05/04 11:44:14;;;;;;;7.53;3.17;;;18.60;67.90;;;;;;5092386;28;20039;-77
2022/05/04 11:46:47;;;;;;;7.28;3.20;;;18.70;68.00;;;;;;5092309;28;20354;-75
2022/05/04 11:49:14;;;;;;;7.38;3.22;;;18.70;64.40;;;;;;5094704;28;20044;-75
2022/05/04 11:51:41;;;;;;;5.07;2.90;;;18.80;64.70;;;;;;5096279;28;20119;-76
2022/05/04 11:54:07;;;;;;;5.63;3.10;;;18.90;66.90;;;;;;5078767;28;20433;-76
2022/05/04 11:56:36;;;;;;;7.63;3.45;;;18.90;65.50;;;;;;5096301;28;20131;-76
2022/05/04 11:59:03;;;;;;;7.47;3.05;;;18.80;63.60;;;;;;5096614;28;20054;-75
2022/05/04 12:01:29;;;;;;;12.15;3.47;;;18.70;63.40;;;;;;5096402;28;20395;-75
2022/05/04 12:03:55;;;;;;;7.95;3.35;;;18.60;65.00;;;;;;5096291;28;20519;-74
2022/05/04 12:06:22;;;;;;;9.18;3.60;;;18.50;65.80;;;;;;5078412;28;20123;-75
2022/05/04 12:08:49;;;;;;;6.43;2.85;;;18.40;66.40;;;;;;5095970;28;20043;-76
2022/05/04 12:11:16;;;;;;;5.35;3.22;;;18.40;65.90;;;;;;5078316;28;20048;-75
2022/05/04 12:13:42;;;;;;;6.18;3.38;;;18.30;65.90;;;;;;5075286;28;20047;-77
2022/05/04 12:16:10;;;;;;;7.50;3.50;;;18.20;67.00;;;;;;5092963;28;20044;-74
2022/05/04 12:18:37;;;;;;;10.30;3.67;;;18.00;65.30;;;;;;5095870;28;20355;-75
2022/05/04 12:21:17;;;;;;;6.28;3.28;;;17.70;66.20;;;;;;5096206;28;20051;-74
2022/05/04 12:23:51;;;;;;;6.88;3.30;;;17.70;66.40;;;;;;5093144;28;20457;-77
2022/05/04 12:26:18;;;;;;;8.02;3.33;;;17.60;66.00;;;;;;5095780;28;20134;-75
2022/05/04 12:34:16;;;;;;;9.73;3.90;;;17.40;66.50;;;;;;5095692;28;20054;-76
2022/05/04 12:36:45;;;;;;;6.55;3.67;;;17.50;68.20;;;;;;5095702;28;20390;-76
2022/05/04 12:39:12;;;;;;;8.98;3.85;;;17.70;67.40;;;;;;5095693;28;20040;-75
2022/05/04 12:41:37;;;;;;;5.25;3.50;;;17.70;67.20;;;;;;5095545;28;20056;-76
2022/05/04 12:44:05;;;;;;;7.72;3.83;;;17.50;68.30;;;;;;5095399;28;20039;-75
2022/05/04 12:46:30;;;;;;;9.68;3.47;;;17.30;66.50;;;;;;5095416;28;20036;-75
2022/05/04 12:48:56;;;;;;;12.25;4.15;;;17.10;66.00;;;;;;5095039;28;20047;-75
2022/05/04 12:51:24;;;;;;;6.10;3.30;;;17.00;65.90;;;;;;5095483;28;20043;-76
2022/05/04 12:53:50;;;;;;;10.45;3.97;;;17.00;68.10;;;;;;5095358;28;20047;-75
2022/05/04 12:59:02;;;;;;;9.77;4.13;;;17.20;68.10;;;;;;5095028;28;20059;-75
2022/05/04 13:01:36;;;;;;;7.22;3.80;;;17.20;66.40;;;;;;5094075;28;20039;-75
2022/05/04 13:04:02;;;;;;;8.73;4.35;;;17.20;68.30;;;;;;5074898;28;20047;-75
2022/05/04 13:06:28;;;;;;;7.32;3.83;;;17.30;67.90;;;;;;5095349;28;20043;-77
2022/05/04 13:08:55;;;;;;;7.93;3.60;;;17.30;67.60;;;;;;5077378;28;20044;-75
2022/05/04 13:11:24;;;;;;;10.27;4.05;;;17.20;66.50;;;;;;5095163;28;20046;-75
2022/05/04 13:13:50;;;;;;;10.02;4.03;;;17.20;66.00;;;;;;5094932;28;20073;-77
2022/05/04 13:16:15;;;;;;;9.07;5.35;;;17.30;66.20;;;;;;5095076;28;20036;-75
2022/05/04 13:18:42;;;;;;;7.13;4.38;;;17.40;67.30;;;;;;5094790;28;20047;-75
2022/05/04 13:21:07;;;;;;;9.25;3.80;;;17.30;66.90;;;;;;5105018;28;20059;-74
2022/05/04 13:23:34;;;;;;;11.45;4.25;;;17.20;67.60;;;;;;5114873;28;20032;-75
2022/05/04 13:26:00;;;;;;;8.75;4.40;;;17.20;67.30;;;;;;5115083;28;20345;-76
2022/05/04 13:28:31;;;;;;;9.88;4.32;;;17.10;68.00;;;;;;5114933;28;20122;-76
2022/05/04 13:30:59;;;;;;;12.02;4.97;;;17.00;67.60;;;;;;5115253;28;20048;-77